createdAt,value
2022-12-29T00:01:42.272Z,10.20
2022-12-29T00:04:15.288Z,10.18
2022-12-29T00:06:43.676Z,10.22
2022-12-29T00:09:13.352Z,10.21
2022-12-29T00:11:39.965Z,10.20
2022-12-29T00:14:26.318Z,10.16
2022-12-29T00:16:53.145Z,10.24
2022-12-29T00:19:38.835Z,10.25
2022-12-29T00:22:23.942Z,10.32
2022-12-29T00:25:02.738Z,10.29
2022-12-29T00:27:48.898Z,10.28
2022-12-29T00:30:36.489Z,10.28
2022-12-29T00:33:41.333Z,10.27
2022-12-29T00:36:12.775Z,10.30
2022-12-29T00:39:01.640Z,10.28
2022-12-29T00:41:46.394Z,10.30
2022-12-29T00:44:14.383Z,10.28
2022-12-29T00:46:42.805Z,10.35
2022-12-29T00:49:30.994Z,10.37
2022-12-29T00:52:04.317Z,10.35
2022-12-29T00:54:33.733Z,10.41
2022-12-29T00:57:01.607Z,10.39
2022-12-29T00:59:28.212Z,10.35
2022-12-29T01:01:55.451Z,10.43
2022-12-29T01:04:24.824Z,10.43
2022-12-29T01:06:51.882Z,10.40
2022-12-29T01:09:37.963Z,10.45
2022-12-29T01:12:09.123Z,10.41
2022-12-29T01:14:36.073Z,10.40
2022-12-29T01:17:02.497Z,10.43
2022-12-29T01:19:28.967Z,10.48
2022-12-29T01:21:55.514Z,10.52
2022-12-29T01:24:22.803Z,10.48
2022-12-29T01:26:49.944Z,10.50
2022-12-29T01:29:16.727Z,10.39
2022-12-29T01:31:43.816Z,10.44
2022-12-29T01:34:10.294Z,10.48
2022-12-29T01:36:36.980Z,10.46
2022-12-29T01:39:03.615Z,10.47
2022-12-29T01:41:30.240Z,10.42
2022-12-29T01:44:02.697Z,10.38
2022-12-29T01:46:44.422Z,10.38
2022-12-29T01:49:16.948Z,10.39
2022-12-29T01:52:07.066Z,10.44
2022-12-29T01:54:43.077Z,10.39
2022-12-29T01:57:14.455Z,10.36
2022-12-29T01:59:50.748Z,10.37
2022-12-29T02:02:17.779Z,10.34
2022-12-29T02:04:45.374Z,10.36
2022-12-29T02:07:19.946Z,10.36
2022-12-29T02:09:51.519Z,10.35
2022-12-29T02:12:20.990Z,10.32
2022-12-29T02:14:51.550Z,10.25
2022-12-29T02:17:54.505Z,10.26
2022-12-29T02:20:33.034Z,10.24
2022-12-29T02:23:14.165Z,10.24
2022-12-29T02:25:56.126Z,10.21
2022-12-29T02:28:47.633Z,10.22
2022-12-29T02:31:37.469Z,10.17
2022-12-29T02:34:23.764Z,10.16
2022-12-29T02:37:05.433Z,10.16
2022-12-29T02:40:09.333Z,10.19
2022-12-29T02:43:05.066Z,10.11
2022-12-29T02:45:40.159Z,10.13
2022-12-29T02:48:17.561Z,10.06
2022-12-29T02:50:52.498Z,10.07
2022-12-29T02:53:41.908Z,10.08
2022-12-29T02:56:08.497Z,10.04
2022-12-29T02:58:35.074Z,10.00
2022-12-29T03:01:29.294Z,9.97
2022-12-29T03:04:21.453Z,9.87
2022-12-29T03:07:10.305Z,9.85
2022-12-29T03:10:15.524Z,9.74
2022-12-29T03:13:22.049Z,9.65
2022-12-29T03:16:05.075Z,9.53
2022-12-29T03:18:52.828Z,9.48
2022-12-29T03:21:57.151Z,9.38
2022-12-29T03:24:28.801Z,9.33
2022-12-29T03:26:59.612Z,9.23
2022-12-29T03:29:30.405Z,9.26
2022-12-29T03:31:59.361Z,9.24
2022-12-29T03:34:27.410Z,9.19
2022-12-29T03:37:00.600Z,9.23
2022-12-29T03:39:27.719Z,9.27
2022-12-29T03:42:01.167Z,9.31
2022-12-29T03:44:38.849Z,9.32
2022-12-29T03:47:06.725Z,9.38
2022-12-29T03:49:34.324Z,9.40
2022-12-29T03:52:00.927Z,9.47
2022-12-29T03:54:27.403Z,9.51
2022-12-29T03:57:15.775Z,9.56
2022-12-29T03:59:42.241Z,9.51
2022-12-29T04:02:08.826Z,9.53
2022-12-29T04:04:35.379Z,9.49
2022-12-29T04:07:01.943Z,9.47
2022-12-29T04:09:28.531Z,9.47
2022-12-29T04:11:55.070Z,9.51
2022-12-29T04:14:21.614Z,9.56
2022-12-29T04:16:48.127Z,9.60
2022-12-29T04:19:14.590Z,9.72
2022-12-29T04:21:41.073Z,9.71
2022-12-29T04:24:07.931Z,9.67
2022-12-29T04:26:34.516Z,9.67
2022-12-29T04:29:01.022Z,9.64
2022-12-29T04:31:27.492Z,9.59
2022-12-29T04:33:53.972Z,9.58
2022-12-29T04:36:24.277Z,9.50
2022-12-29T04:38:56.125Z,9.47
2022-12-29T04:41:22.573Z,9.49
2022-12-29T04:43:49.050Z,9.46
2022-12-29T04:46:15.664Z,9.39
2022-12-29T04:48:42.328Z,9.46
2022-12-29T04:51:08.959Z,9.38
2022-12-29T04:53:35.538Z,9.25
2022-12-29T04:56:02.063Z,9.29
2022-12-29T04:58:28.531Z,9.36
2022-12-29T05:00:54.997Z,9.33
2022-12-29T05:03:21.641Z,9.33
2022-12-29T05:05:48.182Z,9.38
2022-12-29T05:08:14.761Z,9.29
2022-12-29T05:10:41.395Z,9.27
2022-12-29T05:13:08.135Z,9.16
2022-12-29T05:15:34.580Z,9.10
2022-12-29T05:18:01.161Z,9.12
2022-12-29T05:20:27.737Z,9.15
2022-12-29T05:22:54.237Z,9.23
2022-12-29T05:25:20.833Z,9.27
2022-12-29T05:27:47.287Z,9.26
2022-12-29T05:30:13.788Z,9.26
2022-12-29T05:32:40.887Z,9.20
2022-12-29T05:35:07.885Z,9.16
2022-12-29T05:37:34.474Z,9.23
2022-12-29T05:40:01.076Z,9.19
2022-12-29T05:42:27.585Z,9.20
2022-12-29T05:44:54.939Z,9.14
2022-12-29T05:47:21.707Z,9.15
2022-12-29T05:49:48.264Z,9.16
2022-12-29T05:52:14.868Z,9.17
2022-12-29T05:54:41.341Z,9.03
2022-12-29T05:57:07.791Z,9.13
2022-12-29T05:59:34.262Z,9.12
2022-12-29T06:02:00.874Z,9.06
2022-12-29T06:04:27.484Z,9.05
2022-12-29T06:06:53.981Z,9.00
2022-12-29T06:09:20.454Z,9.00
2022-12-29T06:11:46.968Z,8.97
2022-12-29T06:14:13.470Z,8.93
2022-12-29T06:16:40.032Z,8.96
2022-12-29T06:19:06.541Z,8.83
2022-12-29T06:21:33.638Z,8.87
2022-12-29T06:24:00.077Z,8.93
2022-12-29T06:26:26.599Z,8.95
2022-12-29T06:28:53.040Z,8.88
2022-12-29T06:34:13.358Z,8.97
2022-12-29T06:36:40.267Z,8.95
2022-12-29T06:39:06.796Z,8.96
2022-12-29T06:41:33.346Z,8.95
2022-12-29T06:43:59.855Z,8.95
2022-12-29T06:46:26.384Z,8.96
2022-12-29T06:48:52.822Z,9.02
2022-12-29T06:51:19.223Z,8.96
2022-12-29T06:53:45.651Z,8.95
2022-12-29T06:56:12.399Z,8.96
2022-12-29T06:58:38.863Z,9.00
2022-12-29T07:01:05.938Z,8.94
2022-12-29T07:03:32.545Z,8.93
2022-12-29T07:05:59.182Z,8.97
2022-12-29T07:08:25.816Z,8.99
2022-12-29T07:10:52.350Z,8.95
2022-12-29T07:13:18.889Z,8.98
2022-12-29T07:15:45.470Z,8.92
2022-12-29T07:18:11.935Z,8.85
2022-12-29T07:20:38.572Z,8.84
2022-12-29T07:23:05.234Z,8.86
2022-12-29T07:25:31.718Z,8.85
2022-12-29T07:27:58.206Z,8.83
2022-12-29T07:30:24.715Z,8.85
2022-12-29T07:32:51.199Z,8.91
2022-12-29T07:35:17.737Z,8.95
2022-12-29T07:37:47.301Z,8.98
2022-12-29T07:40:16.409Z,8.94
2022-12-29T07:42:42.895Z,8.93
2022-12-29T07:45:10.401Z,8.94
2022-12-29T07:47:37.226Z,8.95
2022-12-29T07:50:04.173Z,8.98
2022-12-29T07:52:30.613Z,8.96
2022-12-29T07:54:57.165Z,8.92
2022-12-29T07:57:29.687Z,8.96
2022-12-29T07:59:58.256Z,8.92
2022-12-29T08:02:27.179Z,8.94
2022-12-29T08:04:53.881Z,8.96
2022-12-29T08:07:20.526Z,8.93
2022-12-29T08:09:47.034Z,8.86
2022-12-29T08:12:13.742Z,8.79
2022-12-29T08:14:40.359Z,8.73
2022-12-29T08:17:07.007Z,8.63
2022-12-29T08:19:33.494Z,8.55
2022-12-29T08:21:59.976Z,8.52
2022-12-29T08:24:26.524Z,8.41
2022-12-29T08:26:53.148Z,8.42
2022-12-29T08:29:20.704Z,8.42
2022-12-29T08:31:47.279Z,8.46
2022-12-29T08:34:15.110Z,8.36
2022-12-29T08:36:41.734Z,8.37
2022-12-29T08:39:08.471Z,8.37
2022-12-29T08:41:35.134Z,8.36
2022-12-29T08:44:01.860Z,8.36
2022-12-29T08:46:28.387Z,8.31
2022-12-29T08:48:56.621Z,8.32
2022-12-29T08:51:24.963Z,8.40
2022-12-29T08:53:54.105Z,8.28
2022-12-29T08:56:24.780Z,8.22
2022-12-29T08:58:52.906Z,8.25
2022-12-29T09:01:20.103Z,8.38
2022-12-29T09:06:39.987Z,8.25
2022-12-29T09:09:10.458Z,8.18
2022-12-29T09:11:39.753Z,8.09
2022-12-29T09:14:06.369Z,8.05
2022-12-29T09:16:33.256Z,8.16
2022-12-29T09:19:00.716Z,8.16
2022-12-29T09:21:27.175Z,8.13
2022-12-29T09:23:53.630Z,8.17
2022-12-29T09:26:20.095Z,8.23
2022-12-29T09:28:46.965Z,8.28
2022-12-29T09:31:14.101Z,8.28
2022-12-29T09:33:41.269Z,8.32
2022-12-29T09:36:09.385Z,8.32
2022-12-29T09:38:35.850Z,8.30
2022-12-29T09:41:10.076Z,8.28
2022-12-29T09:44:06.579Z,8.31
2022-12-29T09:46:38.654Z,8.25
2022-12-29T09:49:20.104Z,8.32
2022-12-29T09:51:52.025Z,8.33
2022-12-29T09:54:39.822Z,8.34
2022-12-29T09:57:15.961Z,8.31
2022-12-29T09:59:45.795Z,8.25
2022-12-29T10:02:30.285Z,8.29
2022-12-29T10:04:56.778Z,8.32
2022-12-29T10:07:46.563Z,8.36
2022-12-29T10:10:39.470Z,8.37
2022-12-29T10:13:41.438Z,8.41
2022-12-29T10:16:31.068Z,8.43
2022-12-29T10:19:32.929Z,8.40
2022-12-29T10:22:47.298Z,8.57
2022-12-29T10:25:21.852Z,8.60
2022-12-29T10:27:51.022Z,8.63
2022-12-29T10:30:19.232Z,8.65
2022-12-29T10:33:00.012Z,8.71
2022-12-29T10:35:33.043Z,8.77
2022-12-29T10:38:05.959Z,8.81
2022-12-29T10:40:41.754Z,8.84
2022-12-29T10:43:30.629Z,8.90
2022-12-29T10:46:07.954Z,8.92
2022-12-29T10:48:36.061Z,8.97
2022-12-29T10:51:07.150Z,8.95
2022-12-29T10:54:15.780Z,8.99
2022-12-29T10:56:53.285Z,8.99
2022-12-29T10:59:23.381Z,9.03
2022-12-29T11:02:03.789Z,9.08
2022-12-29T11:05:05.219Z,9.16
2022-12-29T11:07:32.113Z,9.25
2022-12-29T11:10:40.155Z,9.26
2022-12-29T11:13:20.050Z,9.39
2022-12-29T11:15:49.949Z,9.50
2022-12-29T11:25:43.141Z,9.43
2022-12-29T11:28:17.445Z,9.36
2022-12-29T11:30:44.446Z,9.31
2022-12-29T11:33:13.270Z,9.31
2022-12-29T11:35:47.111Z,9.24
2022-12-29T11:38:22.846Z,9.30
2022-12-29T11:40:52.110Z,9.25
2022-12-29T11:43:43.941Z,9.19
2022-12-29T11:46:21.245Z,9.15
2022-12-29T11:48:49.390Z,9.07
2022-12-29T11:51:25.293Z,9.11
2022-12-29T11:53:56.907Z,9.24
2022-12-29T11:56:40.098Z,9.30
2022-12-29T11:59:32.512Z,9.42
2022-12-29T12:02:04.080Z,9.47
2022-12-29T12:04:37.452Z,9.55
2022-12-29T12:07:16.182Z,9.61
2022-12-29T12:10:06.633Z,9.68
2022-12-29T12:12:45.673Z,9.66
2022-12-29T12:15:28.645Z,9.54
2022-12-29T12:18:03.240Z,9.49
2022-12-29T12:20:59.680Z,9.46
2022-12-29T12:23:38.773Z,9.43
2022-12-29T12:26:21.092Z,9.40
2022-12-29T12:29:06.995Z,9.39
2022-12-29T12:31:52.580Z,9.37
2022-12-29T12:34:25.524Z,9.36
2022-12-29T12:36:59.993Z,9.36
2022-12-29T12:40:08.761Z,9.32
2022-12-29T12:42:45.302Z,9.35
2022-12-29T12:45:27.809Z,9.24
2022-12-29T12:48:13.235Z,9.28
2022-12-29T12:50:58.133Z,9.27
2022-12-29T12:53:30.426Z,9.31
2022-12-29T12:56:24.416Z,9.25
2022-12-29T12:59:04.230Z,9.32
2022-12-29T13:02:01.703Z,9.27
2022-12-29T13:04:59.283Z,9.24
2022-12-29T13:07:50.249Z,9.29
2022-12-29T13:11:06.490Z,9.16
2022-12-29T13:13:42.159Z,9.28
2022-12-29T13:16:32.464Z,9.26
2022-12-29T13:19:10.253Z,9.27
2022-12-29T13:22:06.888Z,9.24
2022-12-29T13:24:48.642Z,9.24
2022-12-29T13:27:38.069Z,9.26
2022-12-29T13:30:19.989Z,9.28
2022-12-29T13:33:26.092Z,9.22
2022-12-29T13:35:58.751Z,9.17
2022-12-29T13:38:35.300Z,9.21
2022-12-29T13:41:11.090Z,9.24
2022-12-29T13:43:41.168Z,9.27
2022-12-29T13:46:15.168Z,9.20
2022-12-29T13:48:49.581Z,9.24
2022-12-29T13:51:18.391Z,9.22
2022-12-29T13:54:35.382Z,9.16
2022-12-29T13:57:13.182Z,9.16
2022-12-29T14:00:32.559Z,9.07
2022-12-29T14:03:01.959Z,9.11
2022-12-29T14:05:31.435Z,9.13
2022-12-29T14:08:04.186Z,9.11
2022-12-29T14:10:36.380Z,9.05
2022-12-29T14:13:15.959Z,9.08
2022-12-29T14:15:45.326Z,9.06
2022-12-29T14:18:17.453Z,9.09
2022-12-29T14:21:08.589Z,9.08
2022-12-29T14:23:34.981Z,9.07
2022-12-29T14:26:07.128Z,9.13
2022-12-29T14:28:33.491Z,9.12
2022-12-29T14:31:01.972Z,9.06
2022-12-29T14:33:33.393Z,9.07
2022-12-29T14:36:42.460Z,9.08
2022-12-29T14:39:36.270Z,9.08
2022-12-29T14:42:11.551Z,9.08
2022-12-29T14:45:02.638Z,9.02
2022-12-29T14:47:31.792Z,9.04
2022-12-29T14:50:08.159Z,8.99
2022-12-29T14:52:53.995Z,9.11
2022-12-29T14:55:53.012Z,9.11
2022-12-29T14:58:26.933Z,9.00
2022-12-29T15:00:53.782Z,8.95
2022-12-29T15:03:37.308Z,8.99
2022-12-29T15:06:12.205Z,8.91
2022-12-29T15:08:47.800Z,8.86
2022-12-29T15:11:18.297Z,8.87
2022-12-29T15:13:45.818Z,8.87
2022-12-29T15:16:30.886Z,8.83
2022-12-29T15:18:58.180Z,8.82
2022-12-29T15:25:10.753Z,8.66
2022-12-29T15:27:37.241Z,8.55
2022-12-29T15:30:08.364Z,8.52
2022-12-29T15:33:37.069Z,8.52
2022-12-29T15:36:10.530Z,8.50
2022-12-29T15:38:40.620Z,8.42
2022-12-29T15:41:22.502Z,8.32
2022-12-29T15:43:58.807Z,8.40
2022-12-29T15:46:25.459Z,8.33
2022-12-29T15:48:52.022Z,8.23
2022-12-29T15:51:24.419Z,8.38
2022-12-29T15:53:52.848Z,8.37
2022-12-29T15:56:19.853Z,8.42
2022-12-29T15:58:49.812Z,8.46
2022-12-29T16:01:31.907Z,8.45
2022-12-29T16:04:05.411Z,8.44
2022-12-29T16:06:33.294Z,8.43
2022-12-29T16:09:03.644Z,8.38
2022-12-29T16:11:44.287Z,8.41
2022-12-29T16:14:18.498Z,8.33
2022-12-29T16:16:47.019Z,8.28
2022-12-29T16:19:34.296Z,8.23
2022-12-29T16:22:02.429Z,8.28
2022-12-29T16:24:33.438Z,8.23
2022-12-29T16:27:02.592Z,8.26
2022-12-29T16:29:31.311Z,8.22
2022-12-29T16:32:06.127Z,8.22
2022-12-29T16:34:33.543Z,8.24
2022-12-29T16:37:02.290Z,8.23
2022-12-29T16:39:32.836Z,8.12
2022-12-29T16:41:59.947Z,8.18
2022-12-29T16:44:29.009Z,8.26
2022-12-29T16:47:06.262Z,8.17
2022-12-29T16:49:35.375Z,8.18
2022-12-29T16:52:02.580Z,8.11
2022-12-29T16:54:36.395Z,8.08
2022-12-29T16:57:03.753Z,8.06
2022-12-29T16:59:36.528Z,8.01
2022-12-29T17:02:08.583Z,8.06
2022-12-29T17:04:35.136Z,8.01
2022-12-29T17:07:01.624Z,8.07
2022-12-29T17:09:29.425Z,8.08
2022-12-29T17:12:05.363Z,8.06
2022-12-29T17:14:42.755Z,7.97
2022-12-29T17:17:16.542Z,7.85
2022-12-29T17:19:49.941Z,7.77
2022-12-29T17:22:30.207Z,7.79
2022-12-29T17:24:59.427Z,7.82
2022-12-29T17:27:44.489Z,7.82
2022-12-29T17:30:11.324Z,7.82
2022-12-29T17:32:38.266Z,7.86
2022-12-29T17:35:05.039Z,7.81
2022-12-29T17:37:34.609Z,7.92
2022-12-29T17:40:01.267Z,7.91
2022-12-29T17:42:29.616Z,7.86
2022-12-29T17:44:56.083Z,7.80
2022-12-29T17:47:22.483Z,7.77
2022-12-29T17:49:49.088Z,7.77
2022-12-29T17:52:17.592Z,7.74
2022-12-29T17:54:53.450Z,7.78
2022-12-29T19:03:07.782Z,7.12
2022-12-29T19:05:39.661Z,7.11
2022-12-29T19:08:07.712Z,7.10
2022-12-29T19:10:35.569Z,7.11
2022-12-29T19:17:28.950Z,7.05
2022-12-29T19:19:58.781Z,7.02
2022-12-29T19:22:26.426Z,7.02
2022-12-29T19:24:59.757Z,7.02
2022-12-29T19:27:27.381Z,6.94
2022-12-29T19:29:57.572Z,6.96
2022-12-29T19:32:26.459Z,6.91
2022-12-29T19:34:53.231Z,6.94
2022-12-29T19:37:20.162Z,6.93
2022-12-29T19:39:47.807Z,6.98
2022-12-29T19:42:14.686Z,6.96
2022-12-29T19:44:41.629Z,6.93
2022-12-29T19:47:08.318Z,6.94
2022-12-29T19:49:35.697Z,6.92
2022-12-29T19:52:09.718Z,7.00
2022-12-29T19:54:36.595Z,6.97
2022-12-29T19:57:03.732Z,6.99
2022-12-29T19:59:30.272Z,6.98
2022-12-29T20:01:57.211Z,7.03
2022-12-29T20:04:24.226Z,7.09
2022-12-29T20:06:54.050Z,7.10
2022-12-29T20:09:23.988Z,7.06
2022-12-29T20:11:53.725Z,7.13
2022-12-29T20:14:23.155Z,7.11
2022-12-29T20:17:10.260Z,7.13
2022-12-29T20:19:37.892Z,7.27
2022-12-29T20:22:06.828Z,7.25
2022-12-29T20:24:36.476Z,7.23
2022-12-29T20:27:04.743Z,7.26
2022-12-29T20:29:38.809Z,7.28
2022-12-29T20:32:21.366Z,7.27
2022-12-29T20:34:55.400Z,7.24
2022-12-29T20:37:22.655Z,7.26
2022-12-29T20:39:51.748Z,7.16
2022-12-29T20:42:21.250Z,7.12
2022-12-29T20:44:47.814Z,7.11
2022-12-29T20:47:14.610Z,7.13
2022-12-29T20:49:41.615Z,7.05
2022-12-29T20:52:08.195Z,7.01
2022-12-29T20:54:39.107Z,6.99
2022-12-29T20:57:06.864Z,6.95
2022-12-29T20:59:33.464Z,6.89
2022-12-29T21:02:00.277Z,6.89
2022-12-29T21:04:27.274Z,6.90
2022-12-29T21:06:54.620Z,6.83
2022-12-29T21:09:21.625Z,6.81
2022-12-29T21:11:49.057Z,6.73
2022-12-29T21:14:18.448Z,6.68
2022-12-29T21:16:47.938Z,6.67
2022-12-29T21:19:15.231Z,6.61
2022-12-29T21:21:57.188Z,6.59
2022-12-29T21:24:23.697Z,6.69
2022-12-29T21:26:53.080Z,6.68
2022-12-29T21:29:21.704Z,6.53
2022-12-29T21:31:48.272Z,6.55
2022-12-29T21:34:14.974Z,6.54
2022-12-29T21:36:41.587Z,6.47
2022-12-29T21:39:10.889Z,6.41
2022-12-29T21:41:37.451Z,6.42
2022-12-29T21:44:22.539Z,6.44
2022-12-29T21:46:49.039Z,6.42
2022-12-29T21:49:18.711Z,6.41
2022-12-29T21:51:54.357Z,6.37
2022-12-29T21:54:43.361Z,6.34
2022-12-29T21:57:13.377Z,6.35
2022-12-29T22:00:00.716Z,6.34
2022-12-29T22:02:46.511Z,6.32
2022-12-29T22:05:34.202Z,6.32
2022-12-29T22:08:20.941Z,6.31
2022-12-29T22:11:06.708Z,6.27
2022-12-29T22:13:35.608Z,6.29
2022-12-29T22:16:10.407Z,6.29
2022-12-29T22:18:37.480Z,6.26
2022-12-29T22:21:09.172Z,6.31
2022-12-29T22:23:41.492Z,6.21
2022-12-29T22:26:10.297Z,6.17
2022-12-29T22:28:38.994Z,6.22
2022-12-29T22:31:07.334Z,6.25
2022-12-29T22:33:33.909Z,6.27
2022-12-29T22:36:00.635Z,6.30
2022-12-29T22:38:27.332Z,6.29
2022-12-29T22:40:59.293Z,6.35
2022-12-29T22:43:26.234Z,6.42
2022-12-29T22:45:52.974Z,6.43
2022-12-29T22:48:21.738Z,6.43
2022-12-29T22:50:48.493Z,6.36
2022-12-29T22:53:15.210Z,6.42
2022-12-29T22:55:41.856Z,6.33
2022-12-29T22:58:08.447Z,6.33
2022-12-29T23:00:35.123Z,6.28
2022-12-29T23:03:01.952Z,6.34
2022-12-29T23:05:28.528Z,6.43
2022-12-29T23:07:55.331Z,6.44
2022-12-29T23:10:21.894Z,6.40
2022-12-29T23:12:48.841Z,6.36
2022-12-29T23:15:15.652Z,6.32
2022-12-29T23:17:42.167Z,6.29
2022-12-29T23:20:09.367Z,6.30
2022-12-29T23:22:35.972Z,6.32
2022-12-29T23:25:02.883Z,6.29
2022-12-29T23:27:29.477Z,6.23
2022-12-29T23:29:55.961Z,6.29
2022-12-29T23:32:25.603Z,6.32
2022-12-29T23:34:52.096Z,6.29
2022-12-29T23:37:18.843Z,6.33
2022-12-29T23:39:45.312Z,6.38
2022-12-29T23:42:12.321Z,6.30
2022-12-29T23:44:41.617Z,6.36
2022-12-29T23:47:08.422Z,6.32
2022-12-29T23:49:35.128Z,6.34
2022-12-29T23:52:01.740Z,6.27
2022-12-29T23:54:28.233Z,6.26
2022-12-29T23:56:54.816Z,6.26
2022-12-29T23:59:21.521Z,6.25
